Time;durP1;ratioP1;P1;durP2;ratioP2;P2;SDS_P1;SDS_P2;PMS_P1;PMS_P2;Temp;Humidity;BMP_temperature;BMP_pressure;BME280_temperature;BME280_humidity;BME280_pressure;Samples;Min_cycle;Max_cycle;Signal;HPM_P1;HPM_P2
2024/02/08 00:00:40;;;;;;;;;;;;;;;1.79;100.00;100453.13;5128671;27;20294;-74
2024/02/08 00:03:10;;;;;;;;;;;;;;;1.81;100.00;100462.53;5122399;27;20004;-74
2024/02/08 00:05:37;;;;;;;;;;;;;;;1.79;100.00;100471.19;5098063;28;19941;-74
2024/02/08 00:08:02;;;;;;;;;;;;;;;1.76;100.00;100471.22;5114323;28;19915;-74
2024/02/08 00:10:28;;;;;;;;;;;;;;;1.73;100.00;100472.09;5114963;28;19920;-74
2024/02/08 00:12:53;;;;;;;;;;;;;;;1.70;100.00;100477.28;5113694;28;20258;-74
2024/02/08 00:15:18;;;;;;;;;;;;;;;1.68;100.00;100473.88;5115155;28;20210;-74
2024/02/08 00:17:46;;;;;;;;;;;;;;;1.66;100.00;100471.31;5114991;28;19920;-74
2024/02/08 00:20:11;;;;;;;;;;;;;;;1.63;100.00;100471.31;5105519;28;20227;-74
2024/02/08 00:22:37;;;;;;;;;;;;;;;1.61;100.00;100475.66;5117179;28;19927;-74
2024/02/08 00:25:02;;;;;;;;;;;;;;;1.62;100.00;100473.91;5115066;28;20204;-74
2024/02/08 00:27:28;;;;;;;;;;;;;;;1.62;100.00;100473.91;5112863;28;19984;-74
2024/02/08 00:29:53;;;;;;;;;;;;;;;1.59;100.00;100471.38;5115798;28;20480;-74
2024/02/08 00:32:19;;;;;;;;;;;;;;;1.58;100.00;100460.19;5115708;28;19919;-74
2024/02/08 00:34:44;;;;;;;;;;;;;;;1.58;100.00;100454.16;5115923;28;19972;-74
2024/02/08 00:37:09;;;;;;;;;;;;;;;1.57;100.00;100445.59;5115489;28;19920;-74
2024/02/08 00:39:39;;;;;;;;;;;;;;;1.58;100.00;100438.69;5115773;28;20029;-74
2024/02/08 00:42:04;;;;;;;;;;;;;;;1.59;100.00;100433.50;5115608;28;19922;-74
2024/02/08 00:44:30;;;;;;;;;;;;;;;1.59;100.00;100432.66;5115494;28;19947;-74
2024/02/08 00:46:55;;;;;;;;;;;;;;;1.57;100.00;100439.56;5097797;28;20180;-74
2024/02/08 00:49:23;;;;;;;;;;;;;;;1.55;100.00;100439.59;5115963;28;19926;-74
2024/02/08 00:51:49;;;;;;;;;;;;;;;1.56;100.00;100435.28;5116050;28;19920;-74
2024/02/08 00:54:14;;;;;;;;;;;;;;;1.57;100.00;100442.16;5115720;28;20147;-74
2024/02/08 00:56:41;;;;;;;;;;;;;;;1.58;100.00;100451.59;5116421;28;19923;-74
2024/02/08 00:59:07;;;;;;;;;;;;;;;1.57;100.00;100444.75;5115360;28;19924;-74
2024/02/08 01:01:32;;;;;;;;;;;;;;;1.57;100.00;100448.16;5116102;28;19986;-74
2024/02/08 01:03:57;;;;;;;;;;;;;;;1.57;100.00;100447.31;5115996;28;20337;-74
2024/02/08 01:06:22;;;;;;;;;;;;;;;1.56;100.00;100441.28;5115939;28;20163;-74
2024/02/08 01:08:48;;;;;;;;;;;;;;;1.57;100.00;100439.56;5116329;28;19923;-74
2024/02/08 01:11:14;;;;;;;;;;;;;;;1.57;100.00;100439.56;5115627;28;19963;-74
2024/02/08 01:13:39;;;;;;;;;;;;;;;1.56;100.00;100438.69;5116422;28;20263;-74
2024/02/08 01:16:04;;;;;;;;;;;;;;;1.57;100.00;100424.09;5097241;28;19993;-74
2024/02/08 01:18:30;;;;;;;;;;;;;;;1.57;100.00;100430.09;5116592;28;19927;-74
2024/02/08 01:20:55;;;;;;;;;;;;;;;1.55;100.00;100439.59;5115413;28;19919;-73
2024/02/08 01:23:22;;;;;;;;;;;;;;;1.56;100.00;100450.75;5115558;28;19960;-73
2024/02/08 01:25:48;;;;;;;;;;;;;;;1.58;100.00;100443.84;5115510;28;19920;-74
2024/02/08 01:28:13;;;;;;;;;;;;;;;1.62;100.00;100448.97;5115072;28;19991;-74
2024/02/08 01:30:38;;;;;;;;;;;;;;;1.63;100.00;100437.75;5116202;28;20241;-74
2024/02/08 01:33:10;;;;;;;;;;;;;;;1.66;100.00;100424.84;5114928;28;19986;-74
2024/02/08 01:35:36;;;;;;;;;;;;;;;1.71;100.00;100430.81;5097476;28;20151;-74
2024/02/08 01:38:01;;;;;;;;;;;;;;;1.76;100.00;100424.72;5114837;28;19963;-74
2024/02/08 01:40:26;;;;;;;;;;;;;;;1.78;100.00;100418.66;5115212;28;19919;-74
2024/02/08 01:42:58;;;;;;;;;;;;;;;1.78;100.00;100418.66;5114903;28;19920;-74
2024/02/08 01:45:30;;;;;;;;;;;;;;;1.79;100.00;100417.81;5115200;28;19926;-74
2024/02/08 01:48:02;;;;;;;;;;;;;;;1.81;100.00;100412.63;5114963;28;20128;-73
2024/02/08 01:50:32;;;;;;;;;;;;;;;1.82;100.00;100415.19;5115165;28;19932;-74
2024/02/08 01:52:59;;;;;;;;;;;;;;;1.84;100.00;100413.44;5113435;28;19941;-74
2024/02/08 01:55:25;;;;;;;;;;;;;;;1.82;100.00;100419.50;5114147;28;19919;-73
2024/02/08 01:57:50;;;;;;;;;;;;;;;1.81;100.00;100420.38;5114650;28;19938;-73
2024/02/08 02:00:16;;;;;;;;;;;;;;;1.80;100.00;100423.81;5114928;28;19919;-74
2024/02/08 02:02:42;;;;;;;;;;;;;;;1.80;100.00;100423.81;5115231;28;19920;-74
2024/02/08 02:05:17;;;;;;;;;;;;;;;1.78;100.00;100418.66;5114456;28;19931;-74
2024/02/08 02:07:42;;;;;;;;;;;;;;;1.78;100.00;100420.41;5115334;28;19960;-74
2024/02/08 02:10:08;;;;;;;;;;;;;;;1.80;100.00;100416.06;5114484;28;19990;-74
2024/02/08 02:12:33;;;;;;;;;;;;;;;1.82;100.00;100414.31;5114628;28;19950;-74
2024/02/08 02:14:59;;;;;;;;;;;;;;;1.82;100.00;100394.53;5114709;28;20217;-74
2024/02/08 02:17:26;;;;;;;;;;;;;;;1.84;100.00;100395.38;5114530;28;20119;-74
2024/02/08 02:19:52;;;;;;;;;;;;;;;1.87;100.00;100408.25;5113810;28;19927;-74
2024/02/08 02:22:19;;;;;;;;;;;;;;;1.86;100.00;100400.53;5114503;28;19927;-74
2024/02/08 02:24:45;;;;;;;;;;;;;;;1.87;100.00;100403.09;5114393;28;20230;-74
2024/02/08 02:27:11;;;;;;;;;;;;;;;1.86;100.00;100401.38;5114420;28;19924;-74
2024/02/08 02:29:38;;;;;;;;;;;;;;;1.87;100.00;100390.19;5115069;28;19987;-73
2024/02/08 02:32:10;;;;;;;;;;;;;;;1.93;100.00;100386.66;5113622;28;20729;-74
2024/02/08 02:34:36;;;;;;;;;;;;;;;1.97;100.00;100390.91;5115332;28;19920;-74
2024/02/08 02:37:02;;;;;;;;;;;;;;;2.00;100.00;100387.44;5119118;28;19964;-74
2024/02/08 02:39:30;;;;;;;;;;;;;;;1.99;100.00;100381.41;5118681;28;19924;-74
2024/02/08 02:41:56;;;;;;;;;;;;;;;1.99;100.00;100378.00;5100602;28;19951;-74
2024/02/08 02:44:22;;;;;;;;;;;;;;;1.94;100.00;100383.19;5118831;28;20130;-74
2024/02/08 02:46:49;;;;;;;;;;;;;;;1.92;100.00;100384.94;5118791;28;19919;-74
2024/02/08 02:49:17;;;;;;;;;;;;;;;1.94;100.00;100388.38;5117765;28;20120;-74
2024/02/08 02:51:44;;;;;;;;;;;;;;;1.94;100.00;100385.78;5118332;28;19995;-74
2024/02/08 02:54:10;;;;;;;;;;;;;;;1.94;100.00;100375.44;5117577;28;19981;-74
2024/02/08 02:56:35;;;;;;;;;;;;;;;1.94;100.00;100378.03;5118295;28;19920;-74
2024/02/08 02:59:03;;;;;;;;;;;;;;;1.95;100.00;100376.28;5118244;28;19996;-74
2024/02/08 03:01:33;;;;;;;;;;;;;;;1.92;100.00;100377.19;5119206;28;20095;-74
2024/02/08 03:03:58;;;;;;;;;;;;;;;1.90;100.00;100381.53;5117946;28;19924;-74
2024/02/08 03:06:26;;;;;;;;;;;;;;;1.90;100.00;100371.19;5100125;28;19988;-74
2024/02/08 03:08:51;;;;;;;;;;;;;;;1.89;100.00;100362.63;5118120;28;19919;-74
2024/02/08 03:11:17;;;;;;;;;;;;;;;1.92;100.00;100359.13;5118173;28;20273;-74
2024/02/08 03:13:42;;;;;;;;;;;;;;;1.96;100.00;100353.03;5118805;28;20207;-74
2024/02/08 03:16:14;;;;;;;;;;;;;;;2.02;100.00;100344.34;5118186;28;20123;-74
2024/02/08 03:18:43;;;;;;;;;;;;;;;2.06;100.00;100351.22;5100224;28;19911;-74
2024/02/08 03:21:09;;;;;;;;;;;;;;;2.10;100.00;100352.88;5118026;28;20230;-74
2024/02/08 03:23:35;;;;;;;;;;;;;;;2.15;100.00;100350.19;5118850;28;19991;-73
2024/02/08 03:26:01;;;;;;;;;;;;;;;2.19;100.00;100344.13;5117377;28;19965;-73
2024/02/08 03:28:26;;;;;;;;;;;;;;;2.23;100.00;100348.38;5118190;28;19915;-73
2024/02/08 03:30:56;;;;;;;;;;;;;;;2.25;100.00;100346.63;5113420;28;19920;-73
2024/02/08 03:33:21;;;;;;;;;;;;;;;2.27;100.00;100342.28;5099024;28;20074;-73
2024/02/08 03:35:53;;;;;;;;;;;;;;;2.28;100.00;100351.75;5117855;28;19953;-73
2024/02/08 03:38:19;;;;;;;;;;;;;;;2.28;100.00;100351.75;5117340;28;19982;-73
2024/02/08 03:40:44;;;;;;;;;;;;;;;2.29;100.00;100358.63;5117545;28;19927;-73
2024/02/08 03:43:09;;;;;;;;;;;;;;;2.27;100.00;100355.19;5117848;28;19920;-73
2024/02/08 03:45:39;;;;;;;;;;;;;;;2.26;100.00;100353.50;5117660;28;19957;-73
2024/02/08 03:48:05;;;;;;;;;;;;;;;2.27;100.00;100343.16;5116589;28;19919;-73
2024/02/08 03:50:33;;;;;;;;;;;;;;;2.28;100.00;100336.25;5117393;28;19919;-73
2024/02/08 03:53:02;;;;;;;;;;;;;;;2.26;100.00;100325.94;5117289;28;20147;-73
2024/02/08 03:55:27;;;;;;;;;;;;;;;2.24;100.00;100321.69;5117184;28;19911;-73
2024/02/08 03:57:56;;;;;;;;;;;;;;;2.27;100.00;100316.44;5117469;28;20237;-74
2024/02/08 04:00:27;;;;;;;;;;;;;;;2.29;100.00;100304.34;5117729;28;20146;-74
2024/02/08 04:02:55;;;;;;;;;;;;;;;2.29;100.00;100294.00;5116579;28;20073;-74
2024/02/08 04:05:36;;;;;;;;;;;;;;;2.29;100.00;100287.13;5117002;28;19927;-74
2024/02/08 04:08:02;;;;;;;;;;;;;;;2.30;100.00;100280.22;5098910;28;19920;-74
2024/02/08 04:53:58;;;;;;;;;;;;;;;2.30;100.00;100295.75;5090959;28;20071;-74
2024/02/08 04:56:23;;;;;;;;;;;;;;;2.26;100.00;100291.50;5095700;28;19979;-74
2024/02/08 04:58:50;;;;;;;;;;;;;;;2.26;100.00;100289.75;5089116;28;19923;-75
2024/02/08 05:01:17;;;;;;;;;;;;;;;2.26;100.00;100286.34;5078473;28;19926;-74
2024/02/08 05:03:42;;;;;;;;;;;;;;;2.26;100.00;100292.34;5105337;28;19987;-74
2024/02/08 05:06:11;;;;;;;;;;;;;;;2.26;100.00;100279.44;5091653;28;20426;-74
2024/02/08 05:08:39;;;;;;;;;;;;;;;2.27;100.00;100270.81;5098077;28;19920;-74
2024/02/08 05:11:09;;;;;;;;;;;;;;;2.30;100.00;100288.81;5109202;28;19927;-74
2024/02/08 05:13:34;;;;;;;;;;;;;;;2.32;100.00;100290.56;5095244;28;19992;-74
2024/02/08 05:16:00;;;;;;;;;;;;;;;2.32;100.00;100287.97;5092210;28;19920;-74
2024/02/08 05:18:28;;;;;;;;;;;;;;;2.33;100.00;100276.72;5091863;28;19947;-74
2024/02/08 05:20:57;;;;;;;;;;;;;;;2.33;100.00;100268.97;5092136;28;20138;-74
2024/02/08 05:23:25;;;;;;;;;;;;;;;2.38;100.00;100262.84;5085741;28;19999;-74
2024/02/08 05:25:52;;;;;;;;;;;;;;;2.47;100.00;100265.31;5095183;28;19969;-74
2024/02/08 05:28:18;;;;;;;;;;;;;;;2.48;100.00;100259.25;5106548;28;19963;-74
2024/02/08 05:30:44;;;;;;;;;;;;;;;2.53;100.00;100248.84;5115496;28;19931;-74
2024/02/08 05:33:09;;;;;;;;;;;;;;;2.51;100.00;100242.84;5115188;28;19990;-74
2024/02/08 05:35:34;;;;;;;;;;;;;;;2.61;100.00;100246.97;5115955;28;19920;-74
2024/02/08 05:38:00;;;;;;;;;;;;;;;2.63;100.00;100249.53;5114990;28;19967;-74
2024/02/08 05:40:30;;;;;;;;;;;;;;;2.67;100.00;100240.84;5115647;28;20174;-74
2024/02/08 05:42:56;;;;;;;;;;;;;;;2.76;100.00;100247.59;5097304;28;19950;-74
2024/02/08 05:45:23;;;;;;;;;;;;;;;2.72;100.00;100256.28;5115921;28;20231;-74
2024/02/08 05:47:48;;;;;;;;;;;;;;;2.72;100.00;100251.97;5097702;28;19915;-74
2024/02/08 05:50:23;;;;;;;;;;;;;;;2.73;100.00;100256.25;5114823;28;20219;-74
2024/02/08 05:52:51;;;;;;;;;;;;;;;2.73;100.00;100257.97;5115860;28;19916;-74
2024/02/08 05:55:19;;;;;;;;;;;;;;;2.72;100.00;100259.72;5115729;28;20215;-74
2024/02/08 05:57:44;;;;;;;;;;;;;;;2.71;100.00;100252.84;5116225;28;20219;-74
2024/02/08 06:00:14;;;;;;;;;;;;;;;2.71;100.00;100242.50;5114838;28;19947;-74
2024/02/08 06:02:40;;;;;;;;;;;;;;;2.68;100.00;100230.47;5096875;28;19935;-74
2024/02/08 06:05:09;;;;;;;;;;;;;;;2.68;100.00;100232.22;5115046;28;19973;-74
2024/02/08 06:07:36;;;;;;;;;;;;;;;2.66;100.00;100228.81;5115156;28;19912;-74
2024/02/08 06:10:14;;;;;;;;;;;;;;;2.65;100.00;100225.34;5113934;28;19927;-74
2024/02/08 06:12:42;;;;;;;;;;;;;;;2.65;100.00;100216.75;5115429;28;20221;-74
2024/02/08 06:15:21;;;;;;;;;;;;;;;2.66;100.00;100200.38;5114683;28;19985;-74
2024/02/08 06:17:51;;;;;;;;;;;;;;;2.67;100.00;100192.59;5115238;28;20234;-74
2024/02/08 06:20:16;;;;;;;;;;;;;;;2.68;100.00;100190.84;5114203;28;19919;-74
2024/02/08 06:22:43;;;;;;;;;;;;;;;2.68;100.00;100181.34;5115792;28;20097;-75
2024/02/08 06:25:09;;;;;;;;;;;;;;;2.70;100.00;100173.56;5114007;28;19920;-74
2024/02/08 06:27:37;;;;;;;;;;;;;;;2.79;100.00;100167.38;5113552;28;19931;-74
2024/02/08 06:30:09;;;;;;;;;;;;;;;2.86;100.00;100158.63;5113905;28;19920;-75
2024/02/08 06:32:43;;;;;;;;;;;;;;;2.83;100.00;100166.41;5115158;28;19919;-74
2024/02/08 06:35:11;;;;;;;;;;;;;;;2.80;100.00;100171.66;5113846;28;19930;-74
2024/02/08 06:37:46;;;;;;;;;;;;;;;2.80;100.00;100175.09;5112888;28;19931;-74
2024/02/08 06:40:21;;;;;;;;;;;;;;;2.78;100.00;100173.41;5113970;28;20207;-74
2024/02/08 07:37:18;;;;;;;;;;;;;;;3.07;100.00;100115.91;5117624;28;20217;-74
2024/02/08 07:39:53;;;;;;;;;;;;;;;3.07;100.00;100103.84;5107466;28;19916;-74
2024/02/08 07:43:16;;;;;;;;;;;;;;;3.04;100.00;100100.47;5096886;28;19912;-74
2024/02/08 07:45:14;;;;;;;;;;;;;;;3.05;100.00;100109.94;5087924;28;20396;-74
2024/02/08 07:47:39;;;;;;;;;;;;;;;3.13;100.00;100105.44;5088801;28;20156;-74
2024/02/08 07:50:08;;;;;;;;;;;;;;;3.13;100.00;100108.03;5096842;28;19923;-74
2024/02/08 07:52:45;;;;;;;;;;;;;;;3.11;100.00;100112.41;5097215;28;19908;-74
2024/02/08 07:57:57;;;;;;;;;;;;;;;3.11;100.00;100107.22;5097535;28;19914;-74
2024/02/08 08:00:41;;;;;;;;;;;;;;;3.21;100.00;100105.28;5097799;28;19920;-74
2024/02/08 08:03:15;;;;;;;;;;;;;;;3.26;100.00;100103.44;5078935;28;19916;-74
2024/02/08 08:05:41;;;;;;;;;;;;;;;3.33;100.00;100097.25;5097658;28;19916;-74
2024/02/08 08:08:24;;;;;;;;;;;;;;;3.30;100.00;100086.94;5097297;28;19920;-74
2024/02/08 08:10:56;;;;;;;;;;;;;;;3.32;100.00;100081.75;5090297;28;19978;-74
2024/02/08 08:13:50;;;;;;;;;;;;;;;3.39;100.00;100081.56;5097670;28;19982;-74
2024/02/08 08:18:56;;;;;;;;;;;;;;;3.38;100.00;100079.00;5097375;28;20274;-74
2024/02/08 08:21:25;;;;;;;;;;;;;;;3.36;100.00;100070.44;5079827;28;19991;-74
2024/02/08 08:23:59;;;;;;;;;;;;;;;3.33;100.00;100071.38;5097220;28;19915;-75
2024/02/08 08:26:25;;;;;;;;;;;;;;;3.32;100.00;100072.25;5082764;28;20006;-74
2024/02/08 08:29:02;;;;;;;;;;;;;;;3.37;100.00;100057.47;5085177;27;20231;-74
2024/02/08 08:31:37;;;;;;;;;;;;;;;3.38;100.00;100053.13;5113719;27;19927;-74
2024/02/08 08:36:57;;;;;;;;;;;;;;;3.40;100.00;100039.28;5111336;27;19986;-74
2024/02/08 08:39:46;;;;;;;;;;;;;;;3.45;100.00;100031.38;5107931;28;19928;-74
2024/02/08 08:42:23;;;;;;;;;;;;;;;3.45;100.00;100028.78;5109218;27;19919;-74
2024/02/08 08:44:51;;;;;;;;;;;;;;;3.41;100.00;100019.41;5122814;27;19926;-74
2024/02/08 08:47:17;;;;;;;;;;;;;;;3.43;100.00;100015.88;5126352;27;19926;-74
2024/02/08 08:49:43;;;;;;;;;;;;;;;3.44;100.00;100020.19;5124878;27;20172;-74
2024/02/08 08:52:08;;;;;;;;;;;;;;;3.45;100.00;100008.94;5117250;27;20263;-74
2024/02/08 08:54:36;;;;;;;;;;;;;;;3.45;100.00;100003.75;5118832;27;19915;-74
2024/02/08 08:57:12;;;;;;;;;;;;;;;3.46;100.00;100005.47;5118659;27;19927;-74
2024/02/08 08:59:42;;;;;;;;;;;;;;;3.51;100.00;100000.19;5102205;28;19931;-74
2024/02/08 09:02:07;;;;;;;;;;;;;;;3.42;100.00;99998.66;5105330;28;19990;-74
2024/02/08 09:04:36;;;;;;;;;;;;;;;3.42;100.00;99998.66;5106993;28;19920;-74
2024/02/08 09:07:10;;;;;;;;;;;;;;;3.45;100.00;100002.91;5105911;28;20081;-74
2024/02/08 09:09:54;;;;;;;;;;;;;;;3.45;100.00;100003.75;5086976;28;20271;-74
2024/02/08 09:12:28;;;;;;;;;;;;;;;3.45;100.00;99998.56;5115803;28;20242;-74
2024/02/08 09:14:53;;;;;;;;;;;;;;;3.48;100.00;99991.66;5115359;28;20218;-74
2024/02/08 09:17:25;;;;;;;;;;;;;;;3.48;100.00;100008.03;5115656;28;19947;-74
2024/02/08 09:19:50;;;;;;;;;;;;;;;3.50;100.00;99998.47;5115572;28;20181;-74
2024/02/08 09:22:17;;;;;;;;;;;;;;;3.44;100.00;99983.94;5115575;28;19915;-74
2024/02/08 09:24:44;;;;;;;;;;;;;;;3.48;100.00;99983.88;5112167;28;19990;-74
2024/02/08 09:27:15;;;;;;;;;;;;;;;3.51;100.00;99984.66;5114966;28;19961;-74
2024/02/08 09:29:50;;;;;;;;;;;;;;;3.54;100.00;99984.56;5115380;28;19928;-74
2024/02/08 09:33:03;;;;;;;;;;;;;;;3.55;100.00;99981.09;5115509;28;19919;-74
2024/02/08 09:35:11;;;;;;;;;;;;;;;3.58;100.00;99975.81;5099023;28;19919;-74
2024/02/08 09:37:36;;;;;;;;;;;;;;;3.62;100.00;99969.69;5115491;28;20173;-74
2024/02/08 09:40:17;;;;;;;;;;;;;;;3.67;100.00;99961.78;5113594;27;19922;-74
2024/02/08 09:42:54;;;;;;;;;;;;;;;3.69;100.00;99959.16;5112605;28;19907;-74
2024/02/08 09:45:42;;;;;;;;;;;;;;;3.66;100.00;99952.34;5112922;28;19916;-74
2024/02/08 09:48:15;;;;;;;;;;;;;;;3.70;100.00;99940.16;5094376;28;19986;-74
2024/02/08 09:50:50;;;;;;;;;;;;;;;3.67;100.00;99937.63;5116109;28;19956;-74
2024/02/08 09:53:27;;;;;;;;;;;;;;;3.65;100.00;99928.16;5115810;28;19916;-74
2024/02/08 09:55:56;;;;;;;;;;;;;;;3.59;100.00;99912.78;5115416;28;19911;-74
2024/02/08 09:58:38;;;;;;;;;;;;;;;3.64;100.00;99916.13;5114854;28;20215;-74
2024/02/08 10:03:50;;;;;;;;;;;;;;;3.59;100.00;99911.94;5099035;28;19923;-74
2024/02/08 10:06:38;;;;;;;;;;;;;;;3.58;100.00;99907.66;5097456;28;19920;-74
2024/02/08 10:09:33;;;;;;;;;;;;;;;3.63;100.00;99877.31;5115547;28;19907;-74
2024/02/08 10:11:57;;;;;;;;;;;;;;;3.60;100.00;99869.63;5108376;28;19920;-73
2024/02/08 10:14:26;;;;;;;;;;;;;;;3.53;100.00;99873.25;5115379;28;19916;-74
2024/02/08 10:16:59;;;;;;;;;;;;;;;3.40;100.00;99875.34;5096897;28;19926;-74
2024/02/08 10:21:57;;;;;;;;;;;;;;;3.51;100.00;99890.56;5114918;28;19920;-74
2024/02/08 10:24:27;;;;;;;;;;;;;;;3.58;100.00;99880.00;5114909;28;20170;-74
2024/02/08 10:26:58;;;;;;;;;;;;;;;3.55;100.00;99868.91;5115328;28;19923;-74
2024/02/08 10:29:25;;;;;;;;;;;;;;;3.53;100.00;99878.44;5113387;28;20235;-74
2024/02/08 10:31:54;;;;;;;;;;;;;;;3.51;100.00;99881.09;5114623;28;19956;-74
2024/02/08 10:34:33;;;;;;;;;;;;;;;3.44;100.00;99872.63;5114785;28;20207;-74
2024/02/08 10:36:59;;;;;;;;;;;;;;;3.50;100.00;99860.41;5114789;28;19919;-74
2024/02/08 10:39:24;;;;;;;;;;;;;;;3.56;100.00;99870.59;5114671;28;20249;-74
2024/02/08 10:44:27;;;;;;;;;;;;;;;3.50;100.00;99889.75;5114950;28;19915;-74
2024/02/08 10:46:55;;;;;;;;;;;;;;;3.56;100.00;99863.66;5115012;28;20149;-74
2024/02/08 10:49:22;;;;;;;;;;;;;;;3.59;100.00;99855.00;5114402;28;20029;-74
2024/02/08 10:51:48;;;;;;;;;;;;;;;3.57;100.00;99870.56;5114795;28;19920;-73
2024/02/08 10:54:15;;;;;;;;;;;;;;;3.54;100.00;99886.16;5114097;28;19930;-73
2024/02/08 10:57:06;;;;;;;;;;;;;;;3.58;100.00;99894.72;5116904;28;19946;-73
2024/02/08 10:59:47;;;;;;;;;;;;;;;3.63;100.00;99872.97;5117821;28;20219;-73
2024/02/08 11:02:35;;;;;;;;;;;;;;;3.67;100.00;99876.31;5118048;28;19920;-73
2024/02/08 11:05:21;;;;;;;;;;;;;;;3.70;100.00;99880.59;5119216;28;19922;-74
2024/02/08 11:07:46;;;;;;;;;;;;;;;3.72;100.00;99887.41;5100558;28;19980;-74
2024/02/08 11:10:12;;;;;;;;;;;;;;;3.70;100.00;99872.81;5099724;28;19923;-74
2024/02/08 11:12:40;;;;;;;;;;;;;;;3.69;100.00;99860.75;5099601;28;20021;-74
2024/02/08 11:15:15;;;;;;;;;;;;;;;3.69;100.00;99848.66;5117659;28;19947;-74
2024/02/08 11:17:49;;;;;;;;;;;;;;;3.66;100.00;99846.16;5118027;28;19922;-74
2024/02/08 11:20:22;;;;;;;;;;;;;;;3.65;100.00;99834.94;5118277;28;20355;-74
2024/02/08 11:22:57;;;;;;;;;;;;;;;3.75;100.00;99822.59;5118199;28;20187;-74
2024/02/08 11:25:33;;;;;;;;;;;;;;;3.76;100.00;99794.94;5118043;28;19927;-74
2024/02/08 11:28:08;;;;;;;;;;;;;;;3.83;100.00;99783.50;5099535;28;19947;-74
2024/02/08 11:30:34;;;;;;;;;;;;;;;3.85;100.00;99779.97;5116854;28;19924;-74
2024/02/08 11:33:03;;;;;;;;;;;;;;;3.77;100.00;99776.78;5116962;28;20226;-74
2024/02/08 11:35:30;;;;;;;;;;;;;;;3.76;100.00;99769.03;5118253;28;19919;-74
2024/02/08 11:37:56;;;;;;;;;;;;;;;3.72;100.00;99770.88;5116072;28;19943;-74
2024/02/08 11:40:33;;;;;;;;;;;;;;;3.67;100.00;99754.63;5117543;28;19920;-74
2024/02/08 11:43:05;;;;;;;;;;;;;;;3.69;100.00;99746.81;5117287;28;20107;-74
2024/02/08 11:45:31;;;;;;;;;;;;;;;3.66;100.00;99740.00;5117967;28;19946;-74
2024/02/08 11:47:58;;;;;;;;;;;;;;;3.67;100.00;99733.91;5117575;28;20254;-74
2024/02/08 11:50:36;;;;;;;;;;;;;;;3.61;100.00;99740.13;5117935;28;19947;-74
2024/02/08 11:53:04;;;;;;;;;;;;;;;3.68;100.00;99735.63;5117634;28;19916;-74
2024/02/08 11:55:30;;;;;;;;;;;;;;;3.69;100.00;99726.09;5099214;28;19923;-74
2024/02/08 11:57:56;;;;;;;;;;;;;;;3.68;100.00;99714.06;5117027;28;20103;-74
2024/02/08 12:00:24;;;;;;;;;;;;;;;3.67;100.00;99702.84;5117682;28;20148;-74
2024/02/08 12:02:57;;;;;;;;;;;;;;;3.63;100.00;99698.66;5117541;28;20254;-74
2024/02/08 12:05:24;;;;;;;;;;;;;;;3.64;100.00;99675.31;5118143;28;19982;-74
2024/02/08 12:07:50;;;;;;;;;;;;;;;3.63;100.00;99675.34;5116128;28;20204;-74
2024/02/08 12:10:16;;;;;;;;;;;;;;;3.63;100.00;99671.00;5117566;28;20010;-74
2024/02/08 12:12:42;;;;;;;;;;;;;;;3.60;100.00;99663.34;5117397;28;20211;-74
2024/02/08 12:15:07;;;;;;;;;;;;;;;3.52;100.00;99667.06;5117183;28;19919;-74
2024/02/08 12:17:32;;;;;;;;;;;;;;;3.49;100.00;99677.50;5117341;28;20036;-74
2024/02/08 12:20:01;;;;;;;;;;;;;;;3.49;100.00;99661.97;5117257;28;19924;-74
2024/02/08 12:22:26;;;;;;;;;;;;;;;3.48;100.00;99670.66;5116602;28;19939;-74
2024/02/08 12:25:02;;;;;;;;;;;;;;;3.53;100.00;99661.84;5117259;28;19912;-74
2024/02/08 12:27:28;;;;;;;;;;;;;;;3.52;100.00;99649.78;5117162;28;19939;-74
2024/02/08 12:29:56;;;;;;;;;;;;;;;3.50;100.00;99646.41;5116831;28;19948;-74
2024/02/08 12:32:27;;;;;;;;;;;;;;;3.50;100.00;99632.63;5116687;28;19955;-74
2024/02/08 12:34:54;;;;;;;;;;;;;;;3.52;100.00;99629.06;5117048;28;19908;-74
2024/02/08 12:37:22;;;;;;;;;;;;;;;3.53;100.00;99623.03;5116544;28;19931;-74
2024/02/08 12:39:49;;;;;;;;;;;;;;;3.49;100.00;99620.56;5116926;28;20219;-74
2024/02/08 12:42:15;;;;;;;;;;;;;;;3.44;100.00;99611.19;5117067;28;19927;-74
2024/02/08 12:44:48;;;;;;;;;;;;;;;3.42;100.00;99609.53;5115447;28;20123;-74
2024/02/08 12:47:17;;;;;;;;;;;;;;;3.43;100.00;99601.72;5115271;28;20223;-74
2024/02/08 12:49:44;;;;;;;;;;;;;;;3.40;100.00;99601.84;5081598;28;19916;-74
2024/02/08 12:52:11;;;;;;;;;;;;;;;3.38;100.00;99597.59;5116181;28;19965;-74
2024/02/08 12:54:37;;;;;;;;;;;;;;;3.36;100.00;99584.69;5116843;28;20226;-74
2024/02/08 12:57:12;;;;;;;;;;;;;;;3.39;100.00;99579.44;5116399;28;19927;-74
2024/02/08 12:59:38;;;;;;;;;;;;;;;3.38;100.00;99575.13;5116036;28;19961;-74
2024/02/08 13:02:08;;;;;;;;;;;;;;;3.43;100.00;99581.03;5116157;28;19998;-74
2024/02/08 13:04:34;;;;;;;;;;;;;;;3.37;100.00;99565.69;5116625;28;19915;-74
2024/02/08 13:07:00;;;;;;;;;;;;;;;3.25;100.00;99540.19;5115904;28;20124;-74
2024/02/08 13:09:30;;;;;;;;;;;;;;;3.25;100.00;99540.19;5116238;28;19922;-74
2024/02/08 13:12:14;;;;;;;;;;;;;;;3.33;100.00;99522.72;5115893;28;20097;-74
2024/02/08 13:14:42;;;;;;;;;;;;;;;3.27;100.00;99522.88;5098091;28;19926;-74
2024/02/08 13:17:08;;;;;;;;;;;;;;;3.31;100.00;99533.97;5115689;28;19920;-74
2024/02/08 13:19:33;;;;;;;;;;;;;;;3.17;100.00;99530.09;5097537;28;20230;-74
2024/02/08 13:21:58;;;;;;;;;;;;;;;3.24;100.00;99534.19;5097161;28;19927;-74
2024/02/08 13:24:25;;;;;;;;;;;;;;;3.24;100.00;99526.44;5115807;28;19939;-74
2024/02/08 13:26:51;;;;;;;;;;;;;;;3.17;100.00;99513.75;5116009;28;19927;-74
2024/02/08 13:29:16;;;;;;;;;;;;;;;3.11;100.00;99496.66;5097151;28;20135;-74
2024/02/08 13:31:43;;;;;;;;;;;;;;;3.15;100.00;99494.84;5116384;28;20205;-74
2024/02/08 13:34:09;;;;;;;;;;;;;;;3.21;100.00;99487.69;5096826;28;19923;-74
2024/02/08 13:36:35;;;;;;;;;;;;;;;3.19;100.00;99481.72;5097365;28;19966;-74
2024/02/08 13:39:00;;;;;;;;;;;;;;;3.19;100.00;99488.66;5096137;28;19951;-74
2024/02/08 13:41:26;;;;;;;;;;;;;;;3.21;100.00;99477.34;5096893;28;20030;-74
2024/02/08 13:43:51;;;;;;;;;;;;;;;3.23;100.00;99456.59;5114874;28;20196;-74
2024/02/08 13:46:16;;;;;;;;;;;;;;;3.26;100.00;99444.41;5114951;28;19954;-74
2024/02/08 13:48:42;;;;;;;;;;;;;;;3.30;100.00;99440.00;5114832;28;19927;-74
2024/02/08 13:51:07;;;;;;;;;;;;;;;3.32;100.00;99421.81;5114394;28;20222;-74
2024/02/08 13:53:35;;;;;;;;;;;;;;;3.31;100.00;99412.34;5114539;28;19919;-74
2024/02/08 13:56:05;;;;;;;;;;;;;;;3.32;100.00;99401.13;5114626;28;19915;-74
2024/02/08 13:58:30;;;;;;;;;;;;;;;3.26;100.00;99390.09;5114944;28;19923;-74
2024/02/08 14:00:57;;;;;;;;;;;;;;;3.23;100.00;99381.56;5114661;28;19916;-74
2024/02/08 14:03:23;;;;;;;;;;;;;;;3.24;100.00;99381.53;5114420;28;19946;-74
2024/02/08 14:05:51;;;;;;;;;;;;;;;3.26;100.00;99378.91;5114962;28;19920;-74
2024/02/08 14:08:17;;;;;;;;;;;;;;;3.26;100.00;99384.06;5095863;28;19957;-74
2024/02/08 14:10:42;;;;;;;;;;;;;;;3.26;100.00;99355.59;5115563;28;19941;-74
2024/02/08 14:13:09;;;;;;;;;;;;;;;3.26;100.00;99347.84;5114824;28;20227;-74
2024/02/08 14:15:38;;;;;;;;;;;;;;;3.22;100.00;99351.41;5115125;28;19923;-74
2024/02/08 14:20:56;;;;;;;;;;;;;;;3.26;100.00;99332.31;5115092;28;20238;-74
2024/02/08 14:23:31;;;;;;;;;;;;;;;3.23;100.00;99333.25;5113150;28;19920;-74
2024/02/08 14:28:31;;;;;;;;;;;;;;;3.16;100.00;99325.75;5114762;28;20182;-74
2024/02/08 14:31:00;;;;;;;;;;;;;;;3.14;100.00;99318.03;5118031;28;19922;-74
2024/02/08 14:33:25;;;;;;;;;;;;;;;3.20;100.00;99309.22;5122125;28;19926;-74
2024/02/08 14:35:51;;;;;;;;;;;;;;;3.19;100.00;99303.22;5121792;28;19943;-74
2024/02/08 14:38:16;;;;;;;;;;;;;;;3.22;100.00;99299.66;5121311;28;19923;-74
2024/02/08 14:40:41;;;;;;;;;;;;;;;3.20;100.00;99297.16;5121987;28;19916;-74
2024/02/08 14:43:06;;;;;;;;;;;;;;;3.15;100.00;99291.28;5121797;28;19926;-74
2024/02/08 14:45:38;;;;;;;;;;;;;;;3.19;100.00;99294.63;5103744;28;19923;-74
2024/02/08 14:48:10;;;;;;;;;;;;;;;3.21;100.00;99296.25;5121456;28;19924;-74